Time,TemperatureF,DewpointF,PressureIn,WindDirection,WindDirectionDegrees,WindSpeedMPH,WindSpeedGustMPH,Humidity,HourlyPrecipIn,Conditions,Clouds,dailyrainin,SoftwareType,DateUTC
2013-03-28 00:04:00,50.5,47.1,30.29,WSW,257,0.0,5.0,88,0.00,,,0.00,meteohub,2013-03-28 07:04:00,
2013-03-28 00:09:00,50.5,47.1,30.29,WSW,250,0.0,3.0,88,0.00,,,0.00,meteohub,2013-03-28 07:09:00,
2013-03-28 00:15:00,50.5,47.1,30.29,WNW,302,1.0,3.0,88,0.00,,,0.00,meteohub,2013-03-28 07:15:00,
2013-03-28 00:20:00,50.4,46.9,30.29,NW,313,0.0,3.0,88,0.00,,,0.00,meteohub,2013-03-28 07:20:00,
2013-03-28 00:25:00,50.4,46.6,30.29,NNW,348,0.0,3.0,87,0.00,,,0.00,meteohub,2013-03-28 07:25:00,
2013-03-28 00:31:00,50.2,46.4,30.30,NNW,348,0.0,2.0,87,0.00,,,0.00,meteohub,2013-03-28 07:31:00,
2013-03-28 00:36:00,49.8,46.0,30.30,ENE,66,0.0,2.0,87,0.00,,,0.00,meteohub,2013-03-28 07:36:00,
2013-03-28 00:41:00,49.8,46.0,30.30,ENE,66,0.0,1.0,87,0.00,,,0.00,meteohub,2013-03-28 07:41:00,
2013-03-28 00:46:00,49.6,45.9,30.30,ENE,66,0.0,1.0,87,0.00,,,0.00,meteohub,2013-03-28 07:46:00,
2013-03-28 00:52:00,49.6,45.9,30.30,ENE,66,0.0,1.0,87,0.00,,,0.00,meteohub,2013-03-28 07:52:00,
2013-03-28 00:57:00,49.6,45.9,30.30,ENE,63,0.0,1.0,87,0.00,,,0.00,meteohub,2013-03-28 07:57:00,
2013-03-28 01:02:00,49.6,45.9,30.30,ENE,63,0.0,1.0,87,0.00,,,0.00,meteohub,2013-03-28 08:02:00,
2013-03-28 01:07:00,49.6,45.9,30.30,ENE,65,0.0,1.0,87,0.00,,,0.00,meteohub,2013-03-28 08:07:00,
2013-03-28 01:12:00,49.6,45.9,30.30,ENE,64,0.0,0.0,87,0.01,,,0.01,meteohub,2013-03-28 08:12:00,
2013-03-28 01:17:00,49.5,45.5,30.29,ENE,63,0.0,1.0,86,0.01,,,0.01,meteohub,2013-03-28 08:17:00,
2013-03-28 01:22:00,49.3,45.3,30.30,ENE,78,0.0,1.0,86,0.01,,,0.01,meteohub,2013-03-28 08:22:00,
2013-03-28 01:27:00,49.1,45.1,30.30,East,80,0.0,1.0,86,0.01,,,0.01,meteohub,2013-03-28 08:27:00,
2013-03-28 01:33:00,48.7,44.8,30.30,SE,132,1.0,1.0,86,0.01,,,0.01,meteohub,2013-03-28 08:33:00,
2013-03-28 01:38:00,48.7,44.4,30.30,South,169,0.0,1.0,85,0.01,,,0.01,meteohub,2013-03-28 08:38:00,
2013-03-28 01:43:00,48.7,43.9,30.30,SW,221,2.0,2.0,83,0.01,,,0.01,meteohub,2013-03-28 08:43:00,
2013-03-28 01:48:00,48.7,44.1,30.30,West,276,0.0,2.0,84,0.01,,,0.01,meteohub,2013-03-28 08:48:00,
2013-03-28 01:53:00,48.6,43.9,30.30,West,276,0.0,2.0,84,0.01,,,0.01,meteohub,2013-03-28 08:53:00,
2013-03-28 01:58:00,48.4,43.7,30.30,West,271,0.0,2.0,84,0.01,,,0.01,meteohub,2013-03-28 08:58:00,
2013-03-28 02:03:00,48.4,43.7,30.30,WSW,255,0.0,1.0,84,0.01,,,0.01,meteohub,2013-03-28 09:03:00,
2013-03-28 02:09:00,48.0,43.7,30.30,WSW,256,0.0,0.0,85,0.01,,,0.01,meteohub,2013-03-28 09:09:00,
2013-03-28 02:14:00,47.7,43.3,30.30,WSW,256,0.0,0.0,85,0.00,,,0.01,meteohub,2013-03-28 09:14:00,
2013-03-28 02:19:00,47.7,42.8,30.31,SSE,150,0.0,0.0,83,0.00,,,0.01,meteohub,2013-03-28 09:19:00,
2013-03-28 02:24:00,47.5,42.6,30.31,SE,132,0.0,1.0,83,0.00,,,0.01,meteohub,2013-03-28 09:24:00,
2013-03-28 02:29:00,47.5,42.3,30.31,SSE,152,0.0,1.0,82,0.00,,,0.01,meteohub,2013-03-28 09:29:00,
2013-03-28 02:34:00,47.1,42.6,30.31,SW,226,0.0,1.0,84,0.00,,,0.01,meteohub,2013-03-28 09:34:00,
2013-03-28 02:39:00,46.9,41.4,30.31,SSW,199,0.0,1.0,81,0.00,,,0.01,meteohub,2013-03-28 09:39:00,
2013-03-28 02:44:00,47.1,40.6,30.30,WSW,245,0.0,2.0,78,0.00,,,0.01,meteohub,2013-03-28 09:44:00,
2013-03-28 02:50:00,47.1,41.5,30.30,SE,144,0.0,3.0,81,0.00,,,0.01,meteohub,2013-03-28 09:50:00,
2013-03-28 02:55:00,47.1,41.9,30.30,WNW,291,0.0,3.0,82,0.00,,,0.01,meteohub,2013-03-28 09:55:00,
2013-03-28 03:00:00,46.8,42.3,30.30,North,11,0.0,3.0,84,0.00,,,0.01,meteohub,2013-03-28 10:00:00,
2013-03-28 03:05:00,46.8,41.9,30.30,NNW,342,0.0,2.0,83,0.00,,,0.01,meteohub,2013-03-28 10:05:00,
2013-03-28 03:10:00,46.6,41.4,30.30,SSW,200,1.0,2.0,82,0.00,,,0.01,meteohub,2013-03-28 10:10:00,
2013-03-28 03:15:00,46.2,41.4,30.30,SSW,199,1.0,2.0,83,0.00,,,0.01,meteohub,2013-03-28 10:15:00,
2013-03-28 03:21:00,46.0,40.5,30.31,South,187,1.0,2.0,81,0.00,,,0.01,meteohub,2013-03-28 10:21:00,
2013-03-28 03:26:00,45.9,40.6,30.31,SW,218,0.0,2.0,82,0.00,,,0.01,meteohub,2013-03-28 10:26:00,
2013-03-28 03:31:00,45.7,40.8,30.32,SSE,156,1.0,2.0,83,0.00,,,0.01,meteohub,2013-03-28 10:31:00,
2013-03-28 03:36:00,45.3,41.0,30.32,SSE,156,0.0,2.0,85,0.00,,,0.01,meteohub,2013-03-28 10:36:00,
2013-03-28 03:42:00,45.1,40.6,30.32,SE,131,1.0,2.0,84,0.00,,,0.01,meteohub,2013-03-28 10:42:00,
2013-03-28 03:47:00,45.3,41.0,30.31,SSE,152,0.0,2.0,85,0.00,,,0.01,meteohub,2013-03-28 10:47:00,
2013-03-28 03:52:00,45.3,41.4,30.31,NW,310,0.0,1.0,86,0.00,,,0.01,meteohub,2013-03-28 10:52:00,
2013-03-28 03:57:00,45.1,41.2,30.31,NW,310,0.0,1.0,86,0.00,,,0.01,meteohub,2013-03-28 10:57:00,
2013-03-28 04:02:00,45.1,41.2,30.32,SSE,161,1.0,1.0,86,0.00,,,0.01,meteohub,2013-03-28 11:02:00,
2013-03-28 04:07:00,45.0,41.0,30.32,SSE,162,0.0,1.0,86,0.00,,,0.01,meteohub,2013-03-28 11:07:00,
2013-03-28 04:12:00,44.8,40.5,30.32,SSE,161,0.0,1.0,85,0.00,,,0.01,meteohub,2013-03-28 11:12:00,
2013-03-28 04:18:00,44.6,40.6,30.32,SSE,150,0.0,1.0,86,0.00,,,0.01,meteohub,2013-03-28 11:18:00,
2013-03-28 04:23:00,44.4,40.3,30.32,SSE,150,0.0,1.0,85,0.00,,,0.01,meteohub,2013-03-28 11:23:00,
2013-03-28 04:28:00,44.4,40.3,30.32,SSE,151,0.0,1.0,85,0.00,,,0.01,meteohub,2013-03-28 11:28:00,
2013-03-28 04:34:00,44.4,39.6,30.32,SSE,150,0.0,0.0,83,0.00,,,0.01,meteohub,2013-03-28 11:34:00,
2013-03-28 04:39:00,44.4,39.2,30.32,SSE,151,0.0,0.0,82,0.00,,,0.01,meteohub,2013-03-28 11:39:00,
2013-03-28 04:44:00,44.8,39.0,30.32,East,82,2.0,0.0,80,0.00,,,0.01,meteohub,2013-03-28 11:44:00,
2013-03-28 04:49:00,44.8,39.6,30.32,ESE,114,0.0,2.0,82,0.00,,,0.01,meteohub,2013-03-28 11:49:00,
2013-03-28 04:54:00,44.8,40.3,30.32,ESE,114,0.0,3.0,84,0.00,,,0.01,meteohub,2013-03-28 11:54:00,
2013-03-28 05:00:00,44.8,40.5,30.33,SSE,151,1.0,3.0,85,0.00,,,0.01,meteohub,2013-03-28 12:00:00,
2013-03-28 05:05:00,44.6,40.6,30.33,SSW,213,0.0,3.0,86,0.00,,,0.01,meteohub,2013-03-28 12:05:00,
2013-03-28 05:10:00,44.4,40.5,30.33,SSW,196,1.0,2.0,86,0.00,,,0.01,meteohub,2013-03-28 12:10:00,
2013-03-28 05:15:00,44.4,40.5,30.33,SSW,194,0.0,2.0,86,0.00,,,0.01,meteohub,2013-03-28 12:15:00,
2013-03-28 05:20:00,44.2,40.3,30.33,SSW,195,0.0,2.0,86,0.00,,,0.01,meteohub,2013-03-28 12:20:00,
2013-03-28 05:25:00,44.2,40.3,30.33,South,183,0.0,1.0,86,0.00,,,0.01,meteohub,2013-03-28 12:25:00,
2013-03-28 05:30:00,44.2,40.3,30.33,South,183,0.0,0.0,86,0.00,,,0.01,meteohub,2013-03-28 12:30:00,
2013-03-28 05:36:00,44.2,40.1,30.33,SSE,165,0.0,0.0,85,0.00,,,0.01,meteohub,2013-03-28 12:36:00,
2013-03-28 05:41:00,44.2,40.1,30.33,SSE,163,0.0,0.0,85,0.00,,,0.01,meteohub,2013-03-28 12:41:00,
2013-03-28 05:46:00,44.2,40.3,30.33,SE,140,0.0,2.0,86,0.00,,,0.01,meteohub,2013-03-28 12:46:00,
2013-03-28 05:51:00,44.2,40.6,30.33,SE,140,0.0,2.0,87,0.00,,,0.01,meteohub,2013-03-28 12:51:00,
2013-03-28 05:56:00,44.1,40.5,30.33,SE,140,0.0,2.0,87,0.00,,,0.01,meteohub,2013-03-28 12:56:00,
2013-03-28 06:02:00,43.9,40.3,30.33,SE,140,0.0,1.0,87,0.00,,,0.01,meteohub,2013-03-28 13:02:00,
2013-03-28 06:07:00,43.7,40.1,30.33,SSE,159,0.0,1.0,87,0.00,,,0.01,meteohub,2013-03-28 13:07:00,
2013-03-28 06:13:00,43.5,39.9,30.34,SSE,161,1.0,1.0,87,0.00,,,0.01,meteohub,2013-03-28 13:13:00,
2013-03-28 06:18:00,43.5,39.9,30.34,SSE,159,1.0,2.0,87,0.00,,,0.01,meteohub,2013-03-28 13:18:00,
2013-03-28 06:23:00,43.9,40.6,30.34,SSE,157,1.0,3.0,88,0.00,,,0.01,meteohub,2013-03-28 13:23:00,
2013-03-28 06:28:00,43.9,40.6,30.34,SSW,202,1.0,3.0,88,0.00,,,0.01,meteohub,2013-03-28 13:28:00,
2013-03-28 06:33:00,43.9,40.6,30.34,South,182,1.0,3.0,88,0.00,,,0.01,meteohub,2013-03-28 13:33:00,
2013-03-28 06:38:00,43.9,40.6,30.34,SE,141,1.0,2.0,88,0.00,,,0.01,meteohub,2013-03-28 13:38:00,
2013-03-28 06:43:00,44.1,40.8,30.34,SE,141,0.0,2.0,88,0.00,,,0.01,meteohub,2013-03-28 13:43:00,
2013-03-28 06:49:00,44.1,40.8,30.34,SSE,165,0.0,2.0,88,0.00,,,0.01,meteohub,2013-03-28 13:49:00,
2013-03-28 06:54:00,44.1,40.8,30.34,SSE,165,0.0,2.0,88,0.00,,,0.01,meteohub,2013-03-28 13:54:00,
2013-03-28 06:59:00,44.1,40.8,30.34,SSE,163,0.0,1.0,88,0.00,,,0.01,meteohub,2013-03-28 13:59:00,
2013-03-28 07:04:00,44.1,40.8,30.34,SSE,163,0.0,1.0,88,0.00,,,0.01,meteohub,2013-03-28 14:04:00,
2013-03-28 07:09:00,44.1,40.8,30.34,SSE,162,0.0,1.0,88,0.00,,,0.01,meteohub,2013-03-28 14:09:00,
2013-03-28 07:14:00,43.9,40.6,30.34,ESE,121,1.0,1.0,88,0.00,,,0.01,meteohub,2013-03-28 14:14:00,
2013-03-28 07:20:00,43.9,40.3,30.35,ESE,117,0.0,1.0,87,0.00,,,0.01,meteohub,2013-03-28 14:20:00,
2013-03-28 07:25:00,44.1,40.8,30.35,SE,132,0.0,1.0,88,0.00,,,0.01,meteohub,2013-03-28 14:25:00,
2013-03-28 07:30:00,44.1,40.8,30.35,East,90,1.0,1.0,88,0.00,,,0.01,meteohub,2013-03-28 14:30:00,
2013-03-28 07:35:00,44.1,40.8,30.35,ESE,105,0.0,1.0,88,0.00,,,0.01,meteohub,2013-03-28 14:35:00,
2013-03-28 07:40:00,44.1,40.8,30.35,SE,132,2.0,2.0,88,0.00,,,0.01,meteohub,2013-03-28 14:40:00,
2013-03-28 07:45:00,44.2,41.0,30.35,SSE,156,1.0,3.0,88,0.00,,,0.01,meteohub,2013-03-28 14:45:00,
2013-03-28 07:51:00,44.2,41.0,30.35,SE,145,3.0,3.0,88,0.00,,,0.01,meteohub,2013-03-28 14:51:00,
2013-03-28 07:56:00,44.4,41.4,30.35,SE,130,1.0,3.0,89,0.00,,,0.01,meteohub,2013-03-28 14:56:00,
2013-03-28 08:01:00,44.4,41.4,30.35,SSE,149,2.0,3.0,89,0.00,,,0.01,meteohub,2013-03-28 15:01:00,
2013-03-28 08:06:00,44.6,41.5,30.35,SSE,159,0.0,3.0,89,0.00,,,0.01,meteohub,2013-03-28 15:06:00,
2013-03-28 08:11:00,44.8,41.7,30.35,ESE,116,0.0,3.0,89,0.00,,,0.01,meteohub,2013-03-28 15:11:00,
2013-03-28 08:17:00,45.0,41.9,30.35,ESE,122,0.0,2.0,89,0.00,,,0.01,meteohub,2013-03-28 15:17:00,
2013-03-28 08:22:00,45.0,41.5,30.35,ESE,122,1.0,2.0,88,0.00,,,0.01,meteohub,2013-03-28 15:22:00,
2013-03-28 08:27:00,45.3,41.9,30.36,ESE,111,0.0,2.0,88,0.00,,,0.01,meteohub,2013-03-28 15:27:00,
2013-03-28 08:32:00,45.9,42.4,30.36,ESE,122,0.0,1.0,88,0.00,,,0.01,meteohub,2013-03-28 15:32:00,
2013-03-28 08:37:00,46.6,43.2,30.35,ESE,118,0.0,1.0,88,0.00,,,0.01,meteohub,2013-03-28 15:37:00,
2013-03-28 08:43:00,47.1,43.7,30.35,East,99,0.0,1.0,88,0.00,,,0.01,meteohub,2013-03-28 15:43:00,
2013-03-28 08:48:00,47.5,44.1,30.35,East,97,0.0,1.0,88,0.00,,,0.01,meteohub,2013-03-28 15:48:00,
2013-03-28 08:53:00,47.5,44.1,30.36,East,88,1.0,1.0,88,0.00,,,0.01,meteohub,2013-03-28 15:53:00,
2013-03-28 08:58:00,47.8,44.4,30.36,ESE,103,0.0,3.0,88,0.00,,,0.01,meteohub,2013-03-28 15:58:00,
2013-03-28 09:03:00,48.4,45.0,30.36,ESE,107,0.0,3.0,88,0.00,,,0.01,meteohub,2013-03-28 16:03:00,
2013-03-28 09:08:00,48.6,44.8,30.36,East,100,1.0,3.0,87,0.00,,,0.01,meteohub,2013-03-28 16:08:00,
2013-03-28 09:14:00,48.7,45.0,30.36,NNE,25,1.0,3.0,87,0.00,,,0.01,meteohub,2013-03-28 16:14:00,
2013-03-28 09:19:00,48.9,45.1,30.36,NW,326,2.0,3.0,87,0.00,,,0.01,meteohub,2013-03-28 16:19:00,
2013-03-28 09:24:00,48.9,45.1,30.36,North,11,1.0,3.0,87,0.00,,,0.01,meteohub,2013-03-28 16:24:00,
2013-03-28 09:29:00,48.7,45.0,30.36,NW,323,2.0,5.0,87,0.00,,,0.01,meteohub,2013-03-28 16:29:00,
2013-03-28 09:34:00,48.7,45.0,30.36,ENE,78,2.0,5.0,87,0.00,,,0.01,meteohub,2013-03-28 16:34:00,
2013-03-28 09:39:00,48.7,45.0,30.36,ENE,73,0.0,5.0,87,0.00,,,0.01,meteohub,2013-03-28 16:39:00,
2013-03-28 09:45:00,48.9,45.1,30.36,East,96,0.0,3.0,87,0.00,,,0.01,meteohub,2013-03-28 16:45:00,
2013-03-28 09:50:00,49.3,45.3,30.37,East,92,0.0,2.0,86,0.00,,,0.01,meteohub,2013-03-28 16:50:00,
2013-03-28 09:55:00,50.0,46.0,30.37,ESE,122,0.0,2.0,86,0.00,,,0.01,meteohub,2013-03-28 16:55:00,
2013-03-28 10:00:00,50.4,45.7,30.37,East,95,1.0,1.0,84,0.00,,,0.01,meteohub,2013-03-28 17:00:00,
2013-03-28 10:05:00,50.4,46.0,30.37,ESE,110,2.0,2.0,85,0.00,,,0.01,meteohub,2013-03-28 17:05:00,
2013-03-28 10:11:00,50.4,45.3,30.37,SE,125,0.0,2.0,83,0.00,,,0.01,meteohub,2013-03-28 17:11:00,
2013-03-28 10:16:00,50.4,45.3,30.37,SE,132,0.0,2.0,83,0.00,,,0.01,meteohub,2013-03-28 17:16:00,
2013-03-28 10:21:00,50.7,45.7,30.37,SE,134,1.0,2.0,83,0.00,,,0.01,meteohub,2013-03-28 17:21:00,
2013-03-28 10:26:00,50.7,45.7,30.37,ESE,105,0.0,2.0,83,0.00,,,0.01,meteohub,2013-03-28 17:26:00,
2013-03-28 10:31:00,50.7,45.5,30.37,ESE,102,1.0,2.0,82,0.00,,,0.01,meteohub,2013-03-28 17:31:00,
2013-03-28 10:36:00,50.5,45.3,30.38,SE,134,0.0,2.0,82,0.00,,,0.01,meteohub,2013-03-28 17:36:00,
2013-03-28 10:41:00,50.7,45.7,30.38,NW,306,0.0,2.0,83,0.00,,,0.01,meteohub,2013-03-28 17:41:00,
2013-03-28 10:47:00,50.5,45.9,30.37,NNW,348,1.0,2.0,84,0.00,,,0.01,meteohub,2013-03-28 17:47:00,
2013-03-28 10:52:00,50.4,46.0,30.37,NW,321,1.0,2.0,85,0.00,,,0.01,meteohub,2013-03-28 17:52:00,
2013-03-28 10:57:00,50.4,46.0,30.37,NW,321,1.0,3.0,85,0.00,,,0.01,meteohub,2013-03-28 17:57:00,
2013-03-28 11:02:00,50.4,46.0,30.37,NNW,347,1.0,3.0,85,0.00,,,0.01,meteohub,2013-03-28 18:02:00,
2013-03-28 11:07:00,50.5,46.2,30.37,North,11,1.0,3.0,85,0.00,,,0.01,meteohub,2013-03-28 18:07:00,
2013-03-28 11:12:00,50.9,45.9,30.37,NNE,26,0.0,3.0,83,0.00,,,0.01,meteohub,2013-03-28 18:12:00,
2013-03-28 11:18:00,51.4,46.2,30.37,East,98,0.0,2.0,82,0.00,,,0.01,meteohub,2013-03-28 18:18:00,
2013-03-28 11:23:00,52.0,46.6,30.37,ESE,107,2.0,3.0,82,0.00,,,0.01,meteohub,2013-03-28 18:23:00,
2013-03-28 11:29:00,52.3,46.4,30.37,ESE,120,1.0,3.0,80,0.00,,,0.01,meteohub,2013-03-28 18:29:00,
2013-03-28 11:34:00,52.7,46.4,30.37,NW,304,1.0,6.0,79,0.00,,,0.01,meteohub,2013-03-28 18:34:00,
2013-03-28 11:40:00,53.2,46.6,30.37,NNW,330,1.0,6.0,78,0.00,,,0.01,meteohub,2013-03-28 18:40:00,
2013-03-28 11:45:00,53.4,46.8,30.37,NW,304,1.0,3.0,78,0.00,,,0.01,meteohub,2013-03-28 18:45:00,
2013-03-28 11:51:00,54.1,47.1,30.37,East,90,0.0,3.0,77,0.00,,,0.01,meteohub,2013-03-28 18:51:00,
2013-03-28 11:57:00,54.7,47.3,30.37,NW,310,2.0,3.0,76,0.00,,,0.01,meteohub,2013-03-28 18:57:00,
2013-03-28 12:02:00,55.2,47.8,30.37,SSW,211,1.0,3.0,76,0.00,,,0.01,meteohub,2013-03-28 19:02:00,
2013-03-28 12:07:00,55.8,47.7,30.37,SSE,153,0.0,3.0,74,0.00,,,0.01,meteohub,2013-03-28 19:07:00,
2013-03-28 12:12:00,55.8,47.7,30.37,NW,304,1.0,3.0,74,0.00,,,0.01,meteohub,2013-03-28 19:12:00,
2013-03-28 12:17:00,55.2,47.1,30.37,NNW,346,0.0,2.0,74,0.00,,,0.01,meteohub,2013-03-28 19:17:00,
2013-03-28 12:23:00,55.2,47.1,30.37,NW,310,3.0,3.0,74,0.00,,,0.01,meteohub,2013-03-28 19:23:00,
2013-03-28 12:28:00,55.0,47.7,30.37,WSW,248,3.0,4.0,76,0.00,,,0.01,meteohub,2013-03-28 19:28:00,
2013-03-28 12:34:00,55.4,47.7,30.37,NW,311,0.0,4.0,75,0.00,,,0.01,meteohub,2013-03-28 19:34:00,
2013-03-28 12:39:00,55.6,47.8,30.36,NW,313,3.0,4.0,75,0.00,,,0.01,meteohub,2013-03-28 19:39:00,
2013-03-28 12:45:00,55.8,48.4,30.36,WSW,244,2.0,6.0,76,0.00,,,0.01,meteohub,2013-03-28 19:45:00,
2013-03-28 12:50:00,56.1,48.7,30.36,WSW,238,1.0,6.0,76,0.00,,,0.01,meteohub,2013-03-28 19:50:00,
2013-03-28 12:56:00,56.7,48.4,30.36,NW,321,1.0,5.0,74,0.00,,,0.01,meteohub,2013-03-28 19:56:00,
2013-03-28 13:01:00,56.7,48.0,30.36,WNW,301,4.0,5.0,73,0.00,,,0.01,meteohub,2013-03-28 20:01:00,
2013-03-28 13:06:00,56.3,47.8,30.36,NNW,328,3.0,5.0,73,0.00,,,0.01,meteohub,2013-03-28 20:06:00,
2013-03-28 13:12:00,56.5,48.0,30.36,SW,230,4.0,6.0,73,0.00,,,0.01,meteohub,2013-03-28 20:12:00,
2013-03-28 13:17:00,56.7,48.0,30.35,SSW,210,2.0,6.0,73,0.00,,,0.01,meteohub,2013-03-28 20:17:00,
2013-03-28 13:22:00,57.4,48.4,30.35,WSW,237,5.0,6.0,72,0.00,,,0.01,meteohub,2013-03-28 20:22:00,
2013-03-28 13:28:00,57.6,48.2,30.35,NW,304,4.0,5.0,71,0.00,,,0.01,meteohub,2013-03-28 20:28:00,
2013-03-28 13:33:00,57.7,48.0,30.35,WNW,286,5.0,5.0,70,0.00,,,0.01,meteohub,2013-03-28 20:33:00,
2013-03-28 13:38:00,57.6,47.8,30.35,SW,235,2.0,7.0,70,0.00,,,0.01,meteohub,2013-03-28 20:38:00,
2013-03-28 13:43:00,57.7,48.7,30.35,WNW,286,3.0,9.0,72,0.00,,,0.01,meteohub,2013-03-28 20:43:00,
2013-03-28 13:49:00,57.9,48.2,30.35,WSW,245,6.0,9.0,70,0.00,,,0.01,meteohub,2013-03-28 20:49:00,
2013-03-28 13:54:00,57.6,47.1,30.36,West,269,4.0,11.0,68,0.00,,,0.01,meteohub,2013-03-28 20:54:00,
2013-03-28 13:59:00,57.0,47.3,30.35,SSW,207,2.0,12.0,70,0.00,,,0.01,meteohub,2013-03-28 20:59:00,
2013-03-28 14:04:00,56.8,47.5,30.35,WNW,300,4.0,12.0,71,0.00,,,0.01,meteohub,2013-03-28 21:04:00,
2013-03-28 14:10:00,56.7,47.3,30.35,WSW,253,5.0,10.0,71,0.00,,,0.01,meteohub,2013-03-28 21:10:00,
2013-03-28 14:15:00,57.0,47.3,30.35,WSW,252,4.0,11.0,70,0.00,,,0.01,meteohub,2013-03-28 21:15:00,
2013-03-28 14:21:00,57.4,47.7,30.35,WSW,252,6.0,11.0,70,0.00,,,0.01,meteohub,2013-03-28 21:21:00,
2013-03-28 14:26:00,57.4,48.0,30.35,West,259,6.0,11.0,71,0.00,,,0.01,meteohub,2013-03-28 21:26:00,
2013-03-28 14:31:00,57.9,48.6,30.34,WSW,246,7.0,11.0,71,0.00,,,0.01,meteohub,2013-03-28 21:31:00,
2013-03-28 14:36:00,58.1,48.4,30.34,WSW,245,3.0,11.0,70,0.00,,,0.01,meteohub,2013-03-28 21:36:00,
2013-03-28 14:41:00,58.8,47.5,30.34,SSE,159,0.0,10.0,66,0.00,,,0.01,meteohub,2013-03-28 21:41:00,
2013-03-28 14:47:00,59.9,47.3,30.34,WSW,258,2.0,10.0,63,0.00,,,0.01,meteohub,2013-03-28 21:47:00,
2013-03-28 14:52:00,60.3,47.1,30.34,SSW,207,1.0,6.0,62,0.00,,,0.01,meteohub,2013-03-28 21:52:00,
2013-03-28 14:57:00,60.6,48.4,30.33,WNW,299,9.0,9.0,64,0.00,,,0.01,meteohub,2013-03-28 21:57:00,
2013-03-28 15:02:00,60.4,47.3,30.33,North,0,0.0,9.0,62,0.00,,,0.01,meteohub,2013-03-28 22:02:00,
2013-03-28 15:07:00,60.6,48.4,30.33,West,275,6.0,9.0,64,0.00,,,0.01,meteohub,2013-03-28 22:07:00,
2013-03-28 15:12:00,60.8,47.7,30.33,WSW,257,2.0,9.0,62,0.00,,,0.01,meteohub,2013-03-28 22:12:00,
2013-03-28 15:17:00,61.0,47.5,30.33,WSW,254,2.0,7.0,61,0.00,,,0.01,meteohub,2013-03-28 22:17:00,
2013-03-28 15:23:00,61.3,47.3,30.32,WNW,284,3.0,7.0,60,0.00,,,0.01,meteohub,2013-03-28 22:23:00,
2013-03-28 15:28:00,61.5,47.1,30.32,WSW,245,6.0,7.0,59,0.00,,,0.01,meteohub,2013-03-28 22:28:00,
2013-03-28 15:33:00,61.5,48.0,30.32,WNW,292,4.0,7.0,61,0.00,,,0.01,meteohub,2013-03-28 22:33:00,
2013-03-28 15:38:00,61.9,47.8,30.32,NNW,335,4.0,7.0,60,0.00,,,0.01,meteohub,2013-03-28 22:38:00,
2013-03-28 15:43:00,62.2,45.9,30.32,NW,310,3.0,7.0,55,0.00,,,0.01,meteohub,2013-03-28 22:43:00,
2013-03-28 15:54:00,62.1,46.6,30.32,West,263,5.0,7.0,57,0.00,,,0.01,meteohub,2013-03-28 22:54:00,
2013-03-28 15:59:00,62.2,45.0,30.32,West,262,1.0,6.0,53,0.00,,,0.01,meteohub,2013-03-28 22:59:00,
2013-03-28 16:05:00,62.8,42.8,30.32,SSW,206,1.0,5.0,48,0.00,,,0.01,meteohub,2013-03-28 23:05:00,
2013-03-28 16:10:00,63.9,44.2,30.32,SSE,159,0.0,5.0,49,0.00,,,0.01,meteohub,2013-03-28 23:10:00,
2013-03-28 16:15:00,63.3,45.3,30.32,NW,311,3.0,6.0,52,0.00,,,0.01,meteohub,2013-03-28 23:15:00,
2013-03-28 16:20:00,63.0,45.5,30.32,NW,304,6.0,7.0,53,0.00,,,0.01,meteohub,2013-03-28 23:20:00,
2013-03-28 16:26:00,62.4,46.0,30.32,West,261,4.0,7.0,55,0.00,,,0.01,meteohub,2013-03-28 23:26:00,
2013-03-28 16:31:00,62.1,45.7,30.32,West,267,3.0,7.0,55,0.00,,,0.01,meteohub,2013-03-28 23:31:00,
2013-03-28 16:36:00,61.7,45.9,30.32,SW,219,5.0,6.0,56,0.00,,,0.01,meteohub,2013-03-28 23:36:00,
2013-03-28 16:41:00,61.5,45.7,30.31,WSW,246,2.0,7.0,56,0.00,,,0.01,meteohub,2013-03-28 23:41:00,
2013-03-28 16:46:00,61.5,46.2,30.32,WSW,245,2.0,7.0,57,0.00,,,0.01,meteohub,2013-03-28 23:46:00,
2013-03-28 16:51:00,61.2,45.9,30.32,WSW,238,4.0,7.0,57,0.00,,,0.01,meteohub,2013-03-28 23:51:00,
2013-03-28 16:57:00,61.0,46.6,30.32,WSW,256,5.0,6.0,59,0.00,,,0.01,meteohub,2013-03-28 23:57:00,
2013-03-28 17:02:00,60.6,46.2,30.32,SSW,210,4.0,7.0,59,0.00,,,0.01,meteohub,2013-03-29 00:02:00,
2013-03-28 17:07:00,60.6,45.3,30.32,West,272,1.0,7.0,57,0.00,,,0.01,meteohub,2013-03-29 00:07:00,
2013-03-28 17:12:00,61.0,46.0,30.31,West,275,5.0,7.0,58,0.00,,,0.01,meteohub,2013-03-29 00:12:00,
2013-03-28 17:17:00,60.8,45.9,30.31,WSW,252,3.0,6.0,58,0.00,,,0.01,meteohub,2013-03-29 00:17:00,
2013-03-28 17:22:00,61.0,45.7,30.31,WSW,246,4.0,6.0,57,0.00,,,0.01,meteohub,2013-03-29 00:22:00,
2013-03-28 17:29:00,61.3,45.5,30.31,West,261,4.0,6.0,56,0.00,,,0.01,meteohub,2013-03-29 00:29:00,
2013-03-28 17:34:00,61.5,45.7,30.31,West,278,2.0,6.0,56,0.00,,,0.01,meteohub,2013-03-29 00:34:00,
2013-03-28 17:39:00,61.9,46.0,30.31,WNW,283,2.0,6.0,56,0.00,,,0.01,meteohub,2013-03-29 00:39:00,
2013-03-28 17:44:00,62.1,45.7,30.31,WNW,283,2.0,5.0,55,0.00,,,0.01,meteohub,2013-03-29 00:44:00,
2013-03-28 17:50:00,62.1,45.7,30.31,WNW,302,3.0,4.0,55,0.00,,,0.01,meteohub,2013-03-29 00:50:00,
2013-03-28 17:55:00,61.9,45.5,30.31,West,267,3.0,4.0,55,0.00,,,0.01,meteohub,2013-03-29 00:55:00,
2013-03-28 18:00:00,62.1,45.7,30.31,SW,229,5.0,5.0,55,0.00,,,0.01,meteohub,2013-03-29 01:00:00,
2013-03-28 18:05:00,61.9,45.1,30.31,SW,234,2.0,5.0,54,0.00,,,0.01,meteohub,2013-03-29 01:05:00,
2013-03-28 18:10:00,61.5,45.1,30.32,West,260,3.0,6.0,55,0.00,,,0.01,meteohub,2013-03-29 01:10:00,
2013-03-28 18:16:00,61.5,45.1,30.32,WSW,253,0.0,6.0,55,0.00,,,0.01,meteohub,2013-03-29 01:16:00,
2013-03-28 18:21:00,61.5,45.1,30.32,West,270,1.0,6.0,55,0.00,,,0.01,meteohub,2013-03-29 01:21:00,
2013-03-28 18:26:00,61.5,45.1,30.32,SSW,192,1.0,6.0,55,0.00,,,0.01,meteohub,2013-03-29 01:26:00,
2013-03-28 18:31:00,61.3,46.0,30.32,WSW,240,2.0,5.0,57,0.00,,,0.01,meteohub,2013-03-29 01:31:00,
2013-03-28 18:37:00,61.2,46.2,30.32,WSW,244,2.0,5.0,58,0.00,,,0.01,meteohub,2013-03-29 01:37:00,
2013-03-28 18:42:00,60.8,46.4,30.32,WSW,240,2.0,5.0,59,0.00,,,0.01,meteohub,2013-03-29 01:42:00,
2013-03-28 18:47:00,60.3,46.4,30.32,SW,226,4.0,5.0,60,0.00,,,0.01,meteohub,2013-03-29 01:47:00,
2013-03-28 18:52:00,59.5,46.6,30.32,SW,236,3.0,5.0,62,0.00,,,0.01,meteohub,2013-03-29 01:52:00,
2013-03-28 18:57:00,59.2,46.2,30.32,WSW,251,3.0,5.0,62,0.00,,,0.01,meteohub,2013-03-29 01:57:00,
2013-03-28 19:02:00,58.6,46.0,30.32,WSW,241,2.0,5.0,63,0.00,,,0.01,meteohub,2013-03-29 02:02:00,
2013-03-28 19:07:00,58.5,45.9,30.32,WSW,253,3.0,5.0,63,0.00,,,0.01,meteohub,2013-03-29 02:07:00,
2013-03-28 19:12:00,58.3,45.7,30.32,WSW,240,2.0,5.0,63,0.00,,,0.01,meteohub,2013-03-29 02:12:00,
2013-03-28 19:18:00,57.9,45.3,30.32,WSW,256,3.0,6.0,63,0.00,,,0.01,meteohub,2013-03-29 02:18:00,
2013-03-28 19:23:00,57.7,45.3,30.32,WSW,245,3.0,6.0,63,0.00,,,0.01,meteohub,2013-03-29 02:23:00,
2013-03-28 19:29:00,57.6,45.5,30.32,SW,223,3.0,6.0,64,0.00,,,0.01,meteohub,2013-03-29 02:29:00,
2013-03-28 19:34:00,57.4,45.3,30.32,WSW,244,4.0,6.0,64,0.00,,,0.01,meteohub,2013-03-29 02:34:00,
2013-03-28 19:39:00,57.2,45.1,30.33,SSW,211,2.0,6.0,64,0.00,,,0.01,meteohub,2013-03-29 02:39:00,
2013-03-28 19:44:00,57.0,45.3,30.33,SW,233,2.0,6.0,65,0.00,,,0.01,meteohub,2013-03-29 02:44:00,
2013-03-28 19:49:00,56.7,45.5,30.33,SW,219,4.0,6.0,66,0.00,,,0.01,meteohub,2013-03-29 02:49:00,
2013-03-28 19:54:00,56.5,45.3,30.33,SW,226,2.0,5.0,66,0.00,,,0.01,meteohub,2013-03-29 02:54:00,
2013-03-28 19:59:00,56.3,45.5,30.33,SW,219,3.0,4.0,67,0.00,,,0.01,meteohub,2013-03-29 02:59:00,
2013-03-28 20:05:00,55.9,45.1,30.34,SW,226,1.0,4.0,67,0.00,,,0.01,meteohub,2013-03-29 03:05:00,
2013-03-28 20:10:00,55.8,45.3,30.34,SSW,195,2.0,4.0,68,0.00,,,0.01,meteohub,2013-03-29 03:10:00,
2013-03-28 20:15:00,55.4,45.0,30.34,SE,138,2.0,3.0,68,0.00,,,0.01,meteohub,2013-03-29 03:15:00,
2013-03-28 20:20:00,55.0,45.1,30.34,ESE,111,2.0,4.0,69,0.00,,,0.01,meteohub,2013-03-29 03:20:00,
2013-03-28 20:25:00,54.7,44.8,30.35,ESE,123,1.0,4.0,69,0.00,,,0.01,meteohub,2013-03-29 03:25:00,
2013-03-28 20:30:00,54.7,44.8,30.35,ESE,122,0.0,3.0,69,0.00,,,0.01,meteohub,2013-03-29 03:30:00,
2013-03-28 20:35:00,54.7,44.2,30.35,ESE,123,0.0,3.0,68,0.00,,,0.01,meteohub,2013-03-29 03:35:00,
2013-03-28 20:40:00,54.3,44.4,30.35,South,171,0.0,2.0,69,0.00,,,0.01,meteohub,2013-03-29 03:40:00,
2013-03-28 20:47:00,54.0,44.1,30.35,SSW,213,1.0,1.0,69,0.00,,,0.01,meteohub,2013-03-29 03:47:00,
2013-03-28 20:52:00,53.8,44.6,30.35,SW,219,0.0,1.0,71,0.00,,,0.01,meteohub,2013-03-29 03:52:00,
2013-03-28 20:57:00,53.4,44.6,30.36,WSW,253,0.0,1.0,72,0.00,,,0.01,meteohub,2013-03-29 03:57:00,
2013-03-28 21:00:00,53.2,44.4,30.36,WNW,298,2.0,2.0,72,0.00,,,0.01,meteohub,2013-03-29 04:00:00,
2013-03-28 21:01:00,53.2,44.4,30.36,SW,217,1.0,1.0,72,0.00,,,0.01,meteohub,2013-03-29 04:01:00,
2013-03-28 21:05:00,53.4,44.6,30.36,South,188,2.0,2.0,72,0.00,,,0.01,meteohub,2013-03-29 04:05:00,
2013-03-28 21:07:00,53.8,45.0,30.36,SSW,196,0.0,3.0,72,0.00,,,0.01,meteohub,2013-03-29 04:07:00,
2013-03-28 21:12:00,53.6,44.8,30.36,SSW,200,0.0,3.0,72,0.00,,,0.01,meteohub,2013-03-29 04:12:00,
2013-03-28 21:17:00,53.4,44.6,30.36,SE,132,0.0,3.0,72,0.00,,,0.01,meteohub,2013-03-29 04:17:00,
2013-03-28 21:22:00,53.2,44.8,30.37,SW,226,0.0,3.0,73,0.00,,,0.01,meteohub,2013-03-29 04:22:00,
2013-03-28 21:27:00,53.2,45.1,30.37,SSE,157,0.0,3.0,74,0.00,,,0.01,meteohub,2013-03-29 04:27:00,
2013-03-28 21:32:00,53.6,45.1,30.37,SSE,150,1.0,3.0,73,0.00,,,0.01,meteohub,2013-03-29 04:32:00,
2013-03-28 21:37:00,53.4,45.0,30.37,SSW,207,0.0,3.0,73,0.00,,,0.01,meteohub,2013-03-29 04:37:00,
2013-03-28 21:43:00,53.2,45.1,30.38,SSW,205,0.0,3.0,74,0.00,,,0.01,meteohub,2013-03-29 04:43:00,
2013-03-28 21:48:00,53.1,45.3,30.38,SW,230,0.0,2.0,75,0.00,,,0.01,meteohub,2013-03-29 04:48:00,
2013-03-28 21:53:00,52.9,45.1,30.38,WNW,286,1.0,1.0,75,0.00,,,0.01,meteohub,2013-03-29 04:53:00,
2013-03-28 21:58:00,52.5,45.5,30.38,SSW,202,0.0,2.0,77,0.00,,,0.01,meteohub,2013-03-29 04:58:00,
2013-03-28 22:03:00,52.5,45.9,30.38,SW,234,1.0,2.0,78,0.00,,,0.01,meteohub,2013-03-29 05:03:00,
2013-03-28 22:08:00,52.3,45.7,30.38,West,272,0.0,2.0,78,0.00,,,0.01,meteohub,2013-03-29 05:08:00,
2013-03-28 22:14:00,52.3,46.4,30.38,WNW,300,1.0,1.0,80,0.00,,,0.01,meteohub,2013-03-29 05:14:00,
2013-03-28 22:19:00,52.5,46.6,30.38,West,275,0.0,3.0,80,0.00,,,0.01,meteohub,2013-03-29 05:19:00,
2013-03-28 22:24:00,52.7,46.8,30.38,WSW,248,0.0,3.0,80,0.00,,,0.01,meteohub,2013-03-29 05:24:00,
2013-03-28 22:29:00,52.7,46.8,30.39,SW,222,1.0,3.0,80,0.00,,,0.01,meteohub,2013-03-29 05:29:00,
2013-03-28 22:34:00,53.1,46.8,30.39,West,265,0.0,3.0,79,0.00,,,0.01,meteohub,2013-03-29 05:34:00,
2013-03-28 22:40:00,52.9,46.6,30.39,NE,53,1.0,4.0,79,0.00,,,0.01,meteohub,2013-03-29 05:40:00,
2013-03-28 22:45:00,52.3,46.4,30.39,East,96,1.0,4.0,80,0.00,,,0.01,meteohub,2013-03-29 05:45:00,
2013-03-28 22:50:00,52.0,46.4,30.40,East,96,0.0,2.0,81,0.00,,,0.01,meteohub,2013-03-29 05:50:00,
2013-03-28 22:56:00,51.6,46.2,30.40,North,10,1.0,2.0,82,0.00,,,0.01,meteohub,2013-03-29 05:56:00,
2013-03-28 23:01:00,51.6,46.2,30.40,NW,314,2.0,3.0,82,0.00,,,0.01,meteohub,2013-03-29 06:01:00,
2013-03-28 23:06:00,51.6,46.2,30.40,WNW,294,0.0,3.0,82,0.00,,,0.01,meteohub,2013-03-29 06:06:00,
2013-03-28 23:11:00,51.6,46.2,30.40,East,80,1.0,3.0,82,0.00,,,0.01,meteohub,2013-03-29 06:11:00,
2013-03-28 23:16:00,51.3,46.0,30.40,East,82,1.0,3.0,82,0.00,,,0.01,meteohub,2013-03-29 06:16:00,
2013-03-28 23:22:00,51.1,46.0,30.40,East,80,0.0,2.0,83,0.00,,,0.01,meteohub,2013-03-29 06:22:00,
2013-03-28 23:27:00,50.9,45.9,30.40,East,81,0.0,2.0,83,0.00,,,0.01,meteohub,2013-03-29 06:27:00,
2013-03-28 23:32:00,50.5,45.5,30.40,East,80,0.0,2.0,83,0.00,,,0.01,meteohub,2013-03-29 06:32:00,
2013-03-28 23:37:00,50.5,45.9,30.41,WNW,283,0.0,0.0,84,0.00,,,0.01,meteohub,2013-03-29 06:37:00,
2013-03-28 23:42:00,50.5,45.9,30.41,WNW,283,0.0,1.0,84,0.00,,,0.01,meteohub,2013-03-29 06:42:00,
2013-03-28 23:47:00,50.4,45.7,30.41,East,86,0.0,2.0,84,0.00,,,0.01,meteohub,2013-03-29 06:47:00,
2013-03-28 23:52:00,50.4,45.7,30.41,East,100,3.0,3.0,84,0.00,,,0.01,meteohub,2013-03-29 06:52:00,
2013-03-28 23:58:00,50.4,45.7,30.41,ENE,75,0.0,3.0,84,0.00,,,0.01,meteohub,2013-03-29 06:58:00,